»·PEaware :: N522PM KBFL-KMRY

N522PM :: KBFL-KMRY

FLIGHT INFORMATION

Flight Status: Arrived
Operator: Privately registered:
United States
More flights under this callsign
Pilot: Bruce B. (6887)
Aircraft: Unknown
(LEG2)
More flights by this aircraft type
Origin: KBFL Meadows
United States
Destination: KMRY Monterey Peninsula
United States
More flights between these airports :: More routes between these airports
Route: DIRECT
File this flight plan on PilotEdge
Remarks:
Altitude:
(Current/Filed)
6,500ft
Speed:
(Current/Filed)
230kts
Departed: 04-Feb-20 04:30 PM
Arrived: 04-Feb-20 05:21 PM
Distance/Time
Traveled:
152nm/0:50
Distance/Time
To Go:
Arrived

Flight Plot

Page will automatically refresh every two minutes.

Flight plan parsing failed; only flown route is shown


Map Options




Map Legend


Flown Route
Filed Route
Departure Airport
Arrival Airport
Navaid (VOR, NDB)
Fix

Horizontal Profiles

Position Reports

Time Latitude Longitude Heading Altitude Ground
Speed
04-Feb-20 16:20 35.429467 -119.046759 314 510ft 0kts
04-Feb-20 16:22 35.429468 -119.046761 314 510ft 0kts
04-Feb-20 16:22 35.429469 -119.046762 314 510ft 0kts
04-Feb-20 16:23 35.429471 -119.046764 314 510ft 0kts
04-Feb-20 16:24 35.429472 -119.046765 314 510ft 0kts
04-Feb-20 16:25 35.429433 -119.046821 166 510ft 3kts
04-Feb-20 16:26 35.428316 -119.047203 171 510ft 4kts
04-Feb-20 16:27 35.425745 -119.044743 233 510ft 0kts
04-Feb-20 16:28 35.425641 -119.044916 233 510ft 7kts
04-Feb-20 16:29 35.434373 -119.058787 296 919ft 116kts
04-Feb-20 16:30 35.452155 -119.100366 301 2493ft 146kts
04-Feb-20 16:31 35.473421 -119.144544 298 4215ft 155kts
04-Feb-20 16:32 35.492921 -119.191493 300 5892ft 152kts
04-Feb-20 16:33 35.515605 -119.242768 300 6507ft 199kts
04-Feb-20 16:34 35.543576 -119.306105 300 6504ft 215kts
04-Feb-20 16:35 35.570652 -119.371449 293 6507ft 216kts
04-Feb-20 16:36 35.590470 -119.442130 290 6506ft 218kts
04-Feb-20 16:37 35.609538 -119.512642 290 6507ft 217kts
04-Feb-20 16:38 35.628400 -119.583050 290 6507ft 216kts
04-Feb-20 16:39 35.647263 -119.654062 289 6506ft 218kts
04-Feb-20 16:40 35.666102 -119.725608 289 6502ft 219kts
04-Feb-20 16:41 35.684791 -119.797247 289 6502ft 218kts
04-Feb-20 16:42 35.703682 -119.870115 289 6499ft 223kts
04-Feb-20 16:43 35.731674 -119.938864 304 6497ft 222kts
04-Feb-20 16:44 35.764648 -120.002441 303 6498ft 218kts
04-Feb-20 16:45 35.796595 -120.066895 302 6524ft 219kts
04-Feb-20 16:46 35.828449 -120.131733 302 6521ft 220kts
04-Feb-20 16:47 35.860382 -120.196857 302 6518ft 220kts
04-Feb-20 16:48 35.891612 -120.260691 302 6518ft 216kts
04-Feb-20 16:49 35.922397 -120.323998 303 6516ft 214kts
04-Feb-20 16:50 35.953733 -120.388287 302 6514ft 218kts
04-Feb-20 16:51 35.984719 -120.451967 302 6516ft 215kts
04-Feb-20 16:52 36.016285 -120.516880 302 6507ft 220kts
04-Feb-20 16:53 36.048130 -120.582543 302 6508ft 221kts
04-Feb-20 16:54 36.079285 -120.646944 302 6510ft 215kts
04-Feb-20 16:55 36.109815 -120.710137 303 6513ft 213kts
04-Feb-20 16:56 36.140218 -120.773171 303 6516ft 213kts
04-Feb-20 16:57 36.170817 -120.836730 303 6517ft 214kts
04-Feb-20 16:58 36.201235 -120.900048 303 6520ft 213kts
04-Feb-20 16:59 36.231563 -120.963289 303 6521ft 213kts
04-Feb-20 17:00 36.261806 -121.026466 303 6524ft 213kts
04-Feb-20 17:01 36.292404 -121.090494 303 6521ft 215kts
04-Feb-20 17:02 36.322612 -121.153877 303 6517ft 206kts
04-Feb-20 17:03 36.350167 -121.211835 304 6514ft 186kts
04-Feb-20 17:04 36.375814 -121.265787 304 6471ft 171kts
04-Feb-20 17:05 36.398270 -121.313016 305 6475ft 148kts
04-Feb-20 17:06 36.418910 -121.356500 305 6455ft 144kts
04-Feb-20 17:07 36.436445 -121.404625 298 6088ft 148kts
04-Feb-20 17:08 36.451733 -121.448707 299 6098ft 128kts
04-Feb-20 17:09 36.465655 -121.488475 299 5849ft 126kts
04-Feb-20 17:10 36.478756 -121.526644 297 5354ft 110kts
04-Feb-20 17:11 36.490946 -121.562901 295 5091ft 127kts
04-Feb-20 17:12 36.504507 -121.602016 297 4517ft 116kts
04-Feb-20 17:13 36.516825 -121.636780 295 3981ft 106kts
04-Feb-20 17:14 36.528878 -121.672701 295 3148ft 112kts
04-Feb-20 17:15 36.540388 -121.706583 294 2613ft 110kts
04-Feb-20 17:16 36.552226 -121.741618 293 1951ft 105kts
04-Feb-20 17:17 36.563665 -121.775404 293 1491ft 107kts
04-Feb-20 17:18 36.574612 -121.808031 293 854ft 97kts
04-Feb-20 17:19 36.584303 -121.836513 293 240ft 75kts
04-Feb-20 17:20 36.587742 -121.847491 223 208ft 8kts
04-Feb-20 17:21 36.589004 -121.853236 246 208ft 10kts
04-Feb-20 17:22 36.588884 -121.853888 325 208ft 0kts

Navigation Log

Ident Type
Flight plan parsing failed, navigation log unavailable